セントジョンズ の空港の天気 - METARとTAF

セント・ジョンズ国際空港 ( CYYT / YYT ) - カナダ ニューファンドランド・ラブラドール州セントジョンズ
飛行場実況気象(Metar)
観測時間04/21 14:23 NDT (04/21 16:53 UTC)
風向・風速南 10m/s
視程10km以上
天気現象
少しの雲 雲底高度 300m
全天を覆う雲 雲底高度 550m
気温5℃
湿度100%
気圧1030.2hPa
METARCYYT 211653Z 18020KT 15SM FEW010 OVC018 05/05 A3040 RMK SF1SC7 SLP302
過去の天気等 Google飛行場航空写真 Wunderground天気予報

過去48時間のMETAR

飛行場予報(TAF)
発表時間: 4/21 09:08 NDT (4/21 11:38 UTC)
予報対象時間: 21日9時 NDT ~ 22日9時 NDT
風向・風速南南東 6m/s 瞬間風速 11m/s
視程10km以上
全天の8割程度の雲 雲底高度 3050m
21日10時 NDT から
風向・風速南南東 6m/s 瞬間風速 11m/s
視程10km以上
全天を覆う雲 雲底高度 760m
21日10時 NDT ~ 21日15時 NDT に一時的に
視程4830m
天気現象弱い雨 もや
全天を覆う雲 雲底高度 460m
21日10時 NDT から 確率 30% で
視程1210m
天気現象もや
全天の8割程度の雲 雲底高度 90m
21日15時 NDT から
風向・風速南南東 6m/s 瞬間風速 11m/s
視程1610m
天気現象弱い霧雨 もや
全天を覆う雲 雲底高度 90m
21日17時 NDT から
風向・風速南南西 8m/s 瞬間風速 13m/s
視程4830m
天気現象弱い霧雨 もや
全天を覆う雲 雲底高度 210m
21日22時 NDT から
風向・風速南西 10m/s
視程800m
天気現象弱い霧雨 霧
全天を覆う雲 鉛直視程 60m
22日8時 NDT から
風向・風速西南西 10m/s 瞬間風速 15m/s
視程3220m
天気現象弱い雨 もや
全天を覆う雲 雲底高度 150m
TAF CYYT 211138Z 2112/2212 15012G22KT P6SM BKN100
FM211300 15012G22KT P6SM OVC025
TEMPO 2113/2118 3SM -RA BR OVC015
PROB30 2113/2118 3/4SM BR BKN003
FM211800 15012G22KT 1SM -DZ BR OVC003
FM212000 20015G25KT 3SM -DZ BR OVC007
FM220100 22020KT 1/2SM -DZ FG VV002
FM221100 24020G30KT 2SM -RA BR OVC005 RMK NXT FCST BY 211800Z